createdAt,value
2017-05-05T00:01:11.580Z,9.41
2017-05-05T00:02:33.363Z,9.41
2017-05-05T00:03:55.234Z,9.4
2017-05-05T00:05:17.081Z,9.4
2017-05-05T00:06:38.891Z,9.39
2017-05-05T00:08:00.697Z,9.39
2017-05-05T00:09:22.590Z,9.38
2017-05-05T00:10:44.344Z,9.38
2017-05-05T00:12:06.453Z,9.39
2017-05-05T00:13:28.316Z,9.39
2017-05-05T00:14:51.150Z,9.39
2017-05-05T00:16:13.043Z,9.39
2017-05-05T00:17:35.112Z,9.39
2017-05-05T00:18:57.652Z,9.38
2017-05-05T00:20:19.637Z,9.38
2017-05-05T00:21:41.485Z,9.38
2017-05-05T00:23:03.273Z,9.38
2017-05-05T00:24:25.058Z,9.38
2017-05-05T00:25:46.851Z,9.37
2017-05-05T00:27:08.706Z,9.37
2017-05-05T00:28:30.660Z,9.36
2017-05-05T00:29:52.655Z,9.37
2017-05-05T00:31:14.473Z,9.37
2017-05-05T00:32:37.252Z,9.35
2017-05-05T00:33:59.058Z,9.35
2017-05-05T00:35:20.791Z,9.35
2017-05-05T00:36:43.691Z,9.35
2017-05-05T00:38:05.928Z,9.34
2017-05-05T00:39:27.712Z,9.34
2017-05-05T00:40:49.509Z,9.33
2017-05-05T00:42:11.290Z,9.33
2017-05-05T00:43:33.144Z,9.32
2017-05-05T00:44:55.949Z,9.31
2017-05-05T00:46:17.777Z,9.33
2017-05-05T00:47:39.538Z,9.32
2017-05-05T00:49:01.456Z,9.32
2017-05-05T00:50:23.415Z,9.32
2017-05-05T00:51:45.711Z,9.32
2017-05-05T00:53:07.648Z,9.31
2017-05-05T00:54:29.531Z,9.31
2017-05-05T00:55:51.280Z,9.3
2017-05-05T00:57:13.156Z,9.3
2017-05-05T00:58:35.017Z,9.3
2017-05-05T00:59:56.832Z,9.3
2017-05-05T01:01:18.601Z,9.29
2017-05-05T01:02:40.386Z,9.29
2017-05-05T01:04:03.226Z,9.29
2017-05-05T01:05:24.962Z,9.29
2017-05-05T01:06:46.748Z,9.29
2017-05-05T01:08:08.466Z,9.28
2017-05-05T01:09:30.333Z,9.28
2017-05-05T01:10:52.377Z,9.26
2017-05-05T01:12:15.215Z,9.25
2017-05-05T01:13:39.003Z,9.25
2017-05-05T01:15:00.799Z,9.24
2017-05-05T01:16:22.746Z,9.24
2017-05-05T01:17:44.589Z,9.23
2017-05-05T01:19:06.394Z,9.23
2017-05-05T01:20:29.192Z,9.23
2017-05-05T01:21:51.084Z,9.23
2017-05-05T01:23:12.909Z,9.22
2017-05-05T01:24:34.972Z,9.22
2017-05-05T01:25:56.991Z,9.21
2017-05-05T01:27:20.915Z,9.21
2017-05-05T01:28:42.813Z,9.21
2017-05-05T01:30:04.645Z,9.21
2017-05-05T01:31:26.441Z,9.2
2017-05-05T01:32:49.246Z,9.2
2017-05-05T01:34:16.031Z,9.19
2017-05-05T01:35:37.794Z,9.19
2017-05-05T01:37:00.610Z,9.19
2017-05-05T01:38:22.423Z,9.19
2017-05-05T01:39:44.193Z,9.17
2017-05-05T01:41:06.012Z,9.17
2017-05-05T01:42:27.768Z,9.17
2017-05-05T01:43:49.585Z,9.17
2017-05-05T01:45:11.334Z,9.16
2017-05-05T01:46:33.122Z,9.16
2017-05-05T01:47:54.850Z,9.16
2017-05-05T01:49:16.664Z,9.16
2017-05-05T01:50:38.460Z,9.17
2017-05-05T01:52:01.306Z,9.17
2017-05-05T01:53:24.090Z,9.17
2017-05-05T01:54:46.934Z,9.16
2017-05-05T01:56:08.825Z,9.16
2017-05-05T01:57:30.558Z,9.16
2017-05-05T01:58:53.282Z,9.16
2017-05-05T02:00:15.432Z,9.15
2017-05-05T02:01:37.613Z,9.15
2017-05-05T02:02:59.624Z,9.16
2017-05-05T02:04:21.394Z,9.15
2017-05-05T02:05:44.222Z,9.16
2017-05-05T02:07:07.997Z,9.16
2017-05-05T02:08:29.748Z,9.17
2017-05-05T02:09:51.501Z,9.17
2017-05-05T02:11:13.388Z,9.18
2017-05-05T02:12:37.212Z,9.19
2017-05-05T02:13:58.940Z,9.19
2017-05-05T02:15:20.705Z,9.2
2017-05-05T02:16:43.557Z,9.2
2017-05-05T02:18:05.406Z,9.2
2017-05-05T02:19:27.226Z,9.2
2017-05-05T02:20:49.055Z,9.2
2017-05-05T02:22:10.793Z,9.21
2017-05-05T02:23:32.556Z,9.21
2017-05-05T02:24:54.410Z,9.22
2017-05-05T02:26:25.985Z,9.22
2017-05-05T02:27:47.929Z,9.23
2017-05-05T02:29:09.701Z,9.23
2017-05-05T02:30:31.491Z,9.23
2017-05-05T02:31:54.315Z,9.24
2017-05-05T02:33:17.494Z,9.23
2017-05-05T02:34:39.683Z,9.23
2017-05-05T02:36:01.806Z,9.23
2017-05-05T02:37:23.604Z,9.23
2017-05-05T02:38:46.480Z,9.22
2017-05-05T02:40:08.242Z,9.22
2017-05-05T02:41:31.035Z,9.21
2017-05-05T02:42:52.790Z,9.2
2017-05-05T02:44:14.617Z,9.2
2017-05-05T02:45:36.392Z,9.19
2017-05-05T02:46:58.185Z,9.2
2017-05-05T02:48:20.052Z,9.2
2017-05-05T02:49:41.801Z,9.2
2017-05-05T02:51:04.627Z,9.18
2017-05-05T02:52:26.448Z,9.17
2017-05-05T02:53:48.235Z,9.17
2017-05-05T02:55:10.061Z,9.17
2017-05-05T02:56:31.861Z,9.17
2017-05-05T02:57:53.588Z,9.17
2017-05-05T02:59:15.393Z,9.17
2017-05-05T03:00:38.349Z,9.17
2017-05-05T03:02:01.058Z,9.19
2017-05-05T03:03:23.860Z,9.2
2017-05-05T03:04:45.650Z,9.2
2017-05-05T03:07:17.121Z,9.2
2017-05-05T03:08:40.265Z,9.2
2017-05-05T03:10:02.194Z,9.2
2017-05-05T03:11:24.204Z,9.2
2017-05-05T03:12:46.010Z,9.2
2017-05-05T03:14:07.778Z,9.21
2017-05-05T03:15:29.554Z,9.2
2017-05-05T03:16:51.419Z,9.22
2017-05-05T03:18:13.306Z,9.22
2017-05-05T03:19:35.086Z,9.22
2017-05-05T03:20:57.934Z,9.22
2017-05-05T03:22:19.838Z,9.22
2017-05-05T03:23:41.655Z,9.22
2017-05-05T03:25:04.526Z,9.22
2017-05-05T03:26:26.438Z,9.23
2017-05-05T03:27:48.308Z,9.23
2017-05-05T03:29:10.121Z,9.23
2017-05-05T03:30:31.936Z,9.24
2017-05-05T03:31:53.793Z,9.24
2017-05-05T03:33:15.654Z,9.24
2017-05-05T03:34:38.395Z,9.24
2017-05-05T03:36:01.219Z,9.25
2017-05-05T03:37:22.951Z,9.25
2017-05-05T03:38:44.853Z,9.25
2017-05-05T03:40:06.607Z,9.26
2017-05-05T03:41:29.369Z,9.27
2017-05-05T03:42:51.380Z,9.26
2017-05-05T03:44:13.219Z,9.27
2017-05-05T03:45:34.958Z,9.27
2017-05-05T03:46:56.778Z,9.27
2017-05-05T03:48:18.582Z,9.27
2017-05-05T03:49:41.387Z,9.27
2017-05-05T03:51:03.156Z,9.27
2017-05-05T03:52:24.915Z,9.27
2017-05-05T03:53:46.687Z,9.27
2017-05-05T03:55:09.438Z,9.28
2017-05-05T03:56:31.224Z,9.28
2017-05-05T03:57:53.003Z,9.28
2017-05-05T03:59:14.767Z,9.29
2017-05-05T04:00:36.638Z,9.3
2017-05-05T04:01:58.370Z,9.3
2017-05-05T04:03:20.105Z,9.31
2017-05-05T04:04:41.912Z,9.31
2017-05-05T04:06:03.706Z,9.32
2017-05-05T04:07:25.503Z,9.32
2017-05-05T04:08:49.231Z,9.33
2017-05-05T04:10:12.042Z,9.33
2017-05-05T04:11:33.850Z,9.34
2017-05-05T04:12:55.728Z,9.35
2017-05-05T04:14:17.596Z,9.35
2017-05-05T04:15:39.424Z,9.36
2017-05-05T04:17:01.220Z,9.37
2017-05-05T04:18:23.284Z,9.39
2017-05-05T04:19:45.457Z,9.4
2017-05-05T04:21:07.387Z,9.41
2017-05-05T04:22:30.255Z,9.43
2017-05-05T04:23:52.033Z,9.44
2017-05-05T04:25:13.782Z,9.46
2017-05-05T04:26:36.638Z,9.48
2017-05-05T04:27:58.396Z,9.49
2017-05-05T04:29:20.178Z,9.49
2017-05-05T04:30:42.002Z,9.49
2017-05-05T04:32:03.861Z,9.51
2017-05-05T04:33:26.807Z,9.53
2017-05-05T04:34:48.686Z,9.56
2017-05-05T04:36:12.641Z,9.59
2017-05-05T04:37:35.547Z,9.61
2017-05-05T04:38:57.421Z,9.64
2017-05-05T04:40:19.232Z,9.66
2017-05-05T04:41:42.088Z,9.69
2017-05-05T04:43:03.970Z,9.72
2017-05-05T04:44:25.812Z,9.74
2017-05-05T04:45:48.643Z,9.76
2017-05-05T04:47:11.519Z,9.78
2017-05-05T04:48:33.464Z,9.79
2017-05-05T04:49:55.318Z,9.8
2017-05-05T04:51:17.096Z,9.81
2017-05-05T04:52:40.324Z,9.81
2017-05-05T04:54:02.564Z,9.8
2017-05-05T04:55:25.677Z,9.78
2017-05-05T04:56:47.432Z,9.77
2017-05-05T04:58:09.165Z,9.77
2017-05-05T04:59:30.938Z,9.76
2017-05-05T05:00:52.879Z,9.77
2017-05-05T05:02:14.686Z,9.78
2017-05-05T05:03:36.543Z,9.79
2017-05-05T05:04:58.417Z,9.8
2017-05-05T05:06:20.363Z,9.82
2017-05-05T05:07:45.193Z,9.82
2017-05-05T05:09:09.053Z,9.83
2017-05-05T05:10:30.876Z,9.84
2017-05-05T05:11:52.657Z,9.88
2017-05-05T05:13:14.514Z,9.92
2017-05-05T05:14:36.307Z,9.96
2017-05-05T05:15:59.192Z,10.06
2017-05-05T05:17:21.166Z,10.14
2017-05-05T05:18:43.044Z,10.22
2017-05-05T05:20:04.846Z,10.31
2017-05-05T05:21:26.771Z,10.37
2017-05-05T05:22:48.660Z,10.45
2017-05-05T05:24:10.505Z,10.58
2017-05-05T05:25:32.256Z,10.7
2017-05-05T05:26:54.153Z,10.82
2017-05-05T05:28:16.475Z,10.95
2017-05-05T05:29:38.520Z,11.08
2017-05-05T05:31:10.142Z,11.16
2017-05-05T05:32:32.037Z,11.18
2017-05-05T05:33:53.866Z,11.15
2017-05-05T05:35:15.626Z,11.14
2017-05-05T05:36:38.396Z,11.09
2017-05-05T05:38:00.586Z,11.05
2017-05-05T05:39:22.555Z,11.03
2017-05-05T05:40:44.385Z,11.08
2017-05-05T05:42:06.163Z,11.18
2017-05-05T05:43:27.983Z,11.22
2017-05-05T05:44:49.840Z,11.24
2017-05-05T05:46:11.600Z,11.27
2017-05-05T05:47:33.442Z,11.34
2017-05-05T05:48:55.376Z,11.45
2017-05-05T05:50:17.318Z,11.6
2017-05-05T05:51:39.188Z,11.8
2017-05-05T05:53:01.996Z,11.98
2017-05-05T05:54:23.801Z,12.11
2017-05-05T05:55:45.615Z,12.23
2017-05-05T05:57:07.534Z,12.3
2017-05-05T05:58:29.309Z,12.36
2017-05-05T05:59:51.056Z,12.42
2017-05-05T06:01:12.871Z,12.43
2017-05-05T06:02:34.850Z,12.43
2017-05-05T06:03:57.284Z,12.4
2017-05-05T06:05:19.386Z,12.35
2017-05-05T06:06:42.066Z,12.33
2017-05-05T06:08:03.952Z,12.36
2017-05-05T06:09:25.699Z,12.48
2017-05-05T06:10:47.524Z,12.62
2017-05-05T06:12:09.494Z,12.72
2017-05-05T06:13:31.325Z,12.8
2017-05-05T06:14:53.202Z,12.87
2017-05-05T06:16:15.019Z,12.92
2017-05-05T06:17:36.880Z,12.9
2017-05-05T06:18:58.778Z,12.87
2017-05-05T06:20:20.513Z,12.94
2017-05-05T06:21:42.258Z,13.02
2017-05-05T06:23:04.036Z,13.08
2017-05-05T06:24:25.908Z,13.19
2017-05-05T06:25:47.707Z,13.33
2017-05-05T06:27:09.590Z,13.34
2017-05-05T06:28:31.397Z,13.4
2017-05-05T06:29:53.183Z,13.51
2017-05-05T06:31:15.985Z,13.56
2017-05-05T06:32:37.816Z,13.65
2017-05-05T06:33:59.711Z,13.72
2017-05-05T06:35:21.535Z,13.72
2017-05-05T06:36:43.478Z,13.86
2017-05-05T06:38:05.726Z,14.05
2017-05-05T06:39:28.798Z,14.16
2017-05-05T06:40:50.702Z,14.13
2017-05-05T06:42:13.448Z,14.05
2017-05-05T06:43:35.329Z,13.81
2017-05-05T06:44:57.145Z,13.49
2017-05-05T06:46:18.900Z,13.25
2017-05-05T06:47:40.694Z,13.14
2017-05-05T06:49:02.414Z,13.08
2017-05-05T06:50:24.238Z,13.06
2017-05-05T06:51:45.975Z,13.14
2017-05-05T06:53:07.756Z,13.11
2017-05-05T06:54:29.487Z,12.9
2017-05-05T06:55:51.275Z,12.71
2017-05-05T06:57:14.067Z,12.63
2017-05-05T06:58:35.891Z,12.68
2017-05-05T06:59:57.691Z,12.88
2017-05-05T07:01:19.516Z,13.12
2017-05-05T07:02:41.359Z,13.36
2017-05-05T07:04:03.088Z,13.56
2017-05-05T07:05:24.914Z,13.75
2017-05-05T07:06:46.704Z,13.99
2017-05-05T07:08:08.519Z,14.27
2017-05-05T07:09:32.924Z,14.48
2017-05-05T07:10:54.775Z,14.51
2017-05-05T07:12:16.696Z,14.46
2017-05-05T07:13:38.889Z,14.39
2017-05-05T07:15:19.808Z,14.37
2017-05-05T07:17:13.714Z,14.43
2017-05-05T07:18:57.240Z,14.5
2017-05-05T07:20:22.567Z,14.44
2017-05-05T07:21:48.112Z,14.3
2017-05-05T07:23:17.857Z,14.22
2017-05-05T07:24:44.126Z,14.29
2017-05-05T07:26:23.210Z,14.39
2017-05-05T07:28:16.402Z,14.57
2017-05-05T07:30:06.897Z,14.83
2017-05-05T07:31:59.855Z,15
2017-05-05T07:33:53.114Z,15.24
2017-05-05T07:35:47.774Z,15.57
2017-05-05T07:37:37.950Z,16.01
2017-05-05T07:39:30.549Z,16.61
2017-05-05T07:41:21.911Z,17.36
2017-05-05T07:43:13.781Z,17.95
2017-05-05T07:45:06.008Z,18.12
2017-05-05T07:46:57.573Z,18.12
2017-05-05T07:48:47.894Z,18.51
2017-05-05T07:50:38.610Z,19.16
2017-05-05T07:52:28.577Z,19.69
2017-05-05T07:54:17.979Z,19.38
2017-05-05T07:55:45.617Z,18.84
2017-05-05T07:57:07.468Z,18.23
2017-05-05T07:58:29.305Z,17.4
2017-05-05T07:59:51.056Z,16.52
2017-05-05T08:01:12.828Z,15.78
2017-05-05T08:02:34.524Z,15.28
2017-05-05T08:03:56.382Z,15
2017-05-05T08:05:18.241Z,14.9
2017-05-05T08:06:40.030Z,14.97
2017-05-05T08:08:01.817Z,15.06
2017-05-05T08:09:23.607Z,15.13
2017-05-05T08:10:45.485Z,15.2
2017-05-05T08:12:07.321Z,15.31
2017-05-05T08:13:29.173Z,15.46
2017-05-05T08:14:50.996Z,15.65
2017-05-05T08:16:12.840Z,15.84
2017-05-05T08:17:34.638Z,16.04
2017-05-05T08:18:56.501Z,16.17
2017-05-05T08:20:18.391Z,16.37
2017-05-05T08:21:45.400Z,16.57
2017-05-05T08:23:07.357Z,16.72
2017-05-05T08:24:29.550Z,16.85
2017-05-05T08:25:51.589Z,16.93
2017-05-05T08:27:13.364Z,16.98
2017-05-05T08:28:35.182Z,17.06
2017-05-05T08:29:57.043Z,17.12
2017-05-05T08:31:19.082Z,17.17
2017-05-05T08:32:40.796Z,17.13
2017-05-05T08:34:02.646Z,17
2017-05-05T08:35:24.460Z,16.9
2017-05-05T08:36:46.371Z,16.75
2017-05-05T08:38:08.291Z,16.48
2017-05-05T08:39:30.096Z,16.08
2017-05-05T08:40:53.010Z,15.69
2017-05-05T08:42:15.561Z,15.47
2017-05-05T08:43:37.379Z,15.43
2017-05-05T08:44:59.181Z,15.47
2017-05-05T08:46:21.004Z,15.56
2017-05-05T08:47:42.837Z,15.69
2017-05-05T08:49:04.705Z,15.87
2017-05-05T08:50:26.576Z,16.05
2017-05-05T08:51:48.442Z,16.21
2017-05-05T08:53:10.346Z,16.42
2017-05-05T08:54:32.160Z,16.64
2017-05-05T08:55:54.040Z,16.75
2017-05-05T08:57:15.799Z,16.71
2017-05-05T08:58:37.783Z,16.58
2017-05-05T08:59:59.704Z,16.43
2017-05-05T09:01:22.139Z,16.28
2017-05-05T09:02:45.317Z,16.14
2017-05-05T09:04:08.211Z,16.07
2017-05-05T09:05:30.035Z,16.08
2017-05-05T09:06:52.007Z,16.17
2017-05-05T09:08:14.220Z,16.33
2017-05-05T09:09:36.061Z,16.56
2017-05-05T09:10:57.899Z,16.84
2017-05-05T09:12:19.791Z,17.16
2017-05-05T09:13:41.694Z,17.49
2017-05-05T09:15:03.572Z,17.66
2017-05-05T09:16:25.410Z,17.67
2017-05-05T09:17:47.255Z,17.55
2017-05-05T09:19:09.101Z,17.35
2017-05-05T09:20:30.963Z,17.09
2017-05-05T09:21:52.811Z,16.75
2017-05-05T09:23:14.708Z,16.38
2017-05-05T09:24:36.602Z,16.01
2017-05-05T09:25:58.447Z,15.68
2017-05-05T09:27:20.270Z,15.43
2017-05-05T09:28:42.135Z,15.25
2017-05-05T09:30:03.945Z,15.17
2017-05-05T09:31:25.732Z,15.15
2017-05-05T09:32:47.498Z,15.21
2017-05-05T09:34:09.589Z,15.3
2017-05-05T09:35:31.470Z,15.43
2017-05-05T09:36:53.439Z,15.67
2017-05-05T09:38:15.295Z,16.09
2017-05-05T09:39:37.233Z,16.69
2017-05-05T09:40:59.094Z,17.45
2017-05-05T09:42:20.928Z,18.27
2017-05-05T09:43:42.714Z,19.04
2017-05-05T09:45:04.500Z,19.51
2017-05-05T09:46:26.271Z,19.67
2017-05-05T09:47:48.105Z,19.62
2017-05-05T09:49:09.911Z,19.36
2017-05-05T09:50:31.907Z,18.91
2017-05-05T09:51:53.864Z,18.47
2017-05-05T09:53:15.742Z,18.12
2017-05-05T09:54:37.593Z,17.9
2017-05-05T09:55:59.553Z,17.83
2017-05-05T09:57:21.374Z,17.91
2017-05-05T09:58:43.199Z,18.04
2017-05-05T10:00:05.040Z,18.23
2017-05-05T10:01:26.935Z,18.45
2017-05-05T10:02:49.346Z,18.73
2017-05-05T10:04:12.071Z,19.08
2017-05-05T10:05:33.901Z,19.41
2017-05-05T10:06:55.967Z,19.7
2017-05-05T10:08:17.716Z,20.09
2017-05-05T10:09:40.612Z,20.59
2017-05-05T10:11:02.417Z,21.16
2017-05-05T10:12:24.232Z,21.81
2017-05-05T10:13:46.411Z,23.36
2017-05-05T10:15:08.485Z,27.23
2017-05-05T10:16:30.536Z,30.58
2017-05-05T10:17:52.530Z,32.88
2017-05-05T10:19:14.518Z,31.5
2017-05-05T10:20:36.314Z,30.54
2017-05-05T10:21:58.111Z,30.54
2017-05-05T10:23:19.945Z,29.49
2017-05-05T10:24:41.695Z,28.36
2017-05-05T10:26:03.641Z,27.88
2017-05-05T10:27:26.537Z,29.84
2017-05-05T10:28:48.325Z,31
2017-05-05T10:30:10.095Z,33.24
2017-05-05T10:31:31.936Z,35.32
2017-05-05T10:32:53.667Z,37.02
2017-05-05T10:34:15.539Z,38.47
2017-05-05T10:35:37.450Z,38.88
2017-05-05T10:36:59.288Z,39.9
2017-05-05T10:38:21.159Z,41.13
2017-05-05T10:39:42.979Z,40.55
2017-05-05T10:41:04.932Z,38.86
2017-05-05T10:42:26.680Z,36.8
2017-05-05T10:43:48.445Z,37.06
2017-05-05T10:45:10.202Z,40.3
2017-05-05T10:46:31.981Z,42.12
2017-05-05T10:47:54.119Z,41.93
2017-05-05T10:49:16.191Z,38.29
2017-05-05T10:50:38.375Z,36.64
2017-05-05T10:52:00.160Z,35.49
2017-05-05T10:53:21.873Z,33.93
2017-05-05T10:54:43.597Z,32.03
2017-05-05T10:56:05.489Z,29.58
2017-05-05T10:57:27.251Z,27.27
2017-05-05T10:58:49.117Z,25.54
2017-05-05T11:00:10.929Z,24.29
2017-05-05T11:01:32.867Z,23.4
2017-05-05T11:02:54.738Z,22.93
2017-05-05T11:04:16.447Z,22.75
2017-05-05T11:05:38.341Z,22.74
2017-05-05T11:07:00.166Z,22.9
2017-05-05T11:08:22.544Z,23.07
2017-05-05T11:09:44.374Z,23.15
2017-05-05T11:11:06.145Z,22.98
2017-05-05T11:12:37.696Z,22.87
2017-05-05T11:13:59.450Z,22.58
2017-05-05T11:15:21.324Z,22.33
2017-05-05T11:16:44.138Z,22.07
2017-05-05T11:18:10.779Z,21.97
2017-05-05T11:19:33.222Z,21.96
2017-05-05T11:20:55.036Z,21.98
2017-05-05T11:22:16.796Z,22.16
2017-05-05T11:23:38.965Z,22.63
2017-05-05T11:25:00.936Z,23.37
2017-05-05T11:26:22.797Z,24.31
2017-05-05T11:27:44.605Z,24.74
2017-05-05T11:29:06.470Z,24.99
2017-05-05T11:30:28.391Z,25.62
2017-05-05T11:31:50.202Z,26.1
2017-05-05T11:33:12.053Z,26.98
2017-05-05T11:34:33.894Z,28.82
2017-05-05T11:35:55.647Z,30.58
2017-05-05T11:37:17.466Z,31.27
2017-05-05T11:38:39.211Z,32.39
2017-05-05T11:40:02.212Z,34.31
2017-05-05T11:41:24.072Z,36.42
2017-05-05T11:42:45.966Z,34.89
2017-05-05T11:44:07.797Z,34.45
2017-05-05T11:45:29.671Z,37.46
2017-05-05T11:46:51.529Z,38.01
2017-05-05T11:48:13.411Z,38.82
2017-05-05T11:49:35.258Z,35.31
2017-05-05T11:50:57.049Z,33.53
2017-05-05T11:52:18.813Z,31.67
2017-05-05T11:53:40.814Z,30.77
2017-05-05T11:55:02.616Z,32.47
2017-05-05T11:56:24.495Z,32.23
2017-05-05T11:57:46.362Z,32.75
2017-05-05T11:59:08.266Z,31.31
2017-05-05T12:00:30.055Z,29.61
2017-05-05T12:01:51.951Z,28.99
2017-05-05T12:03:13.872Z,35.72
2017-05-05T12:04:35.958Z,38.94
2017-05-05T12:05:57.883Z,36.08
2017-05-05T12:07:19.654Z,33.78
2017-05-05T12:08:41.401Z,32.36
2017-05-05T12:10:03.211Z,38.73
2017-05-05T12:11:25.028Z,43.38
2017-05-05T12:12:46.888Z,45.77
2017-05-05T12:14:08.665Z,47.3
2017-05-05T12:15:30.536Z,48.84
2017-05-05T12:16:52.293Z,45.19
2017-05-05T12:18:14.212Z,46.58
2017-05-05T12:19:35.993Z,48.63
2017-05-05T12:20:57.770Z,49.54
2017-05-05T12:22:19.538Z,44.96
2017-05-05T12:23:41.494Z,43.2
2017-05-05T12:25:03.440Z,40.79
2017-05-05T12:26:25.286Z,38.56
2017-05-05T12:27:47.462Z,37.77
2017-05-05T12:29:09.292Z,36.29
2017-05-05T12:30:31.184Z,35.22
2017-05-05T12:31:53.032Z,33.9
2017-05-05T12:33:14.853Z,32.82
2017-05-05T12:34:36.726Z,32.27
2017-05-05T12:35:58.515Z,31.98
2017-05-05T12:37:20.319Z,32.42
2017-05-05T12:38:42.340Z,33.18
2017-05-05T12:40:04.241Z,33.03
2017-05-05T12:41:25.957Z,34.91
2017-05-05T12:42:47.889Z,36.37
2017-05-05T12:44:09.674Z,37.26
2017-05-05T12:45:31.476Z,37.76
2017-05-05T12:46:53.315Z,37.51
2017-05-05T12:48:15.145Z,39.17
2017-05-05T12:49:37.006Z,40.02
2017-05-05T12:50:58.867Z,39.26
2017-05-05T12:52:20.749Z,37.26
2017-05-05T12:53:42.566Z,35.89
2017-05-05T12:55:04.367Z,34.95
2017-05-05T12:56:26.142Z,34.63
2017-05-05T12:57:52.441Z,35.31
2017-05-05T12:59:16.017Z,35.39
2017-05-05T13:00:37.850Z,34.1
2017-05-05T13:01:59.677Z,39.42
2017-05-05T13:03:21.496Z,44.38
2017-05-05T13:04:43.254Z,47.37
2017-05-05T13:06:05.133Z,49.06
2017-05-05T13:07:26.904Z,49.83
2017-05-05T13:08:48.699Z,48.53
2017-05-05T13:10:10.497Z,50.11
2017-05-05T13:11:32.351Z,50.38
2017-05-05T13:12:54.301Z,51.8
2017-05-05T13:14:16.067Z,53.18
2017-05-05T13:15:37.855Z,51.34
2017-05-05T13:16:59.681Z,46.47
2017-05-05T13:18:21.547Z,43.22
2017-05-05T13:19:43.490Z,40.98
2017-05-05T13:21:05.322Z,39.42
2017-05-05T13:22:27.100Z,40.67
2017-05-05T13:23:48.992Z,42.97
2017-05-05T13:25:10.747Z,46.56
2017-05-05T13:26:32.617Z,47.87
2017-05-05T13:27:54.352Z,44.72
2017-05-05T13:29:16.140Z,47.43
2017-05-05T13:30:37.997Z,47.85
2017-05-05T13:31:59.853Z,45.58
2017-05-05T13:33:21.644Z,41.8
2017-05-05T13:34:43.509Z,40.17
2017-05-05T13:36:05.365Z,37.5
2017-05-05T13:37:27.267Z,35.95
2017-05-05T13:38:49.115Z,35.75
2017-05-05T13:40:10.957Z,37.02
2017-05-05T13:41:32.788Z,41.73
2017-05-05T13:42:54.561Z,45.06
2017-05-05T13:44:16.292Z,47.11
2017-05-05T13:45:38.139Z,46.02
2017-05-05T13:46:59.988Z,44.5
2017-05-05T13:48:21.878Z,43.85
2017-05-05T13:49:43.670Z,40.11
2017-05-05T13:51:05.483Z,41.97
2017-05-05T13:52:27.216Z,41.62
2017-05-05T13:53:49.018Z,43.15
2017-05-05T13:55:10.983Z,44.74
2017-05-05T13:56:33.041Z,46.01
2017-05-05T13:57:54.868Z,48.57
2017-05-05T13:59:16.704Z,45
2017-05-05T14:00:38.521Z,45.79
2017-05-05T14:02:00.393Z,44.39
2017-05-05T14:03:22.217Z,46.01
2017-05-05T14:04:44.110Z,47.07
2017-05-05T14:06:05.955Z,47.91
2017-05-05T14:07:27.779Z,48.66
2017-05-05T14:08:51.846Z,49.39
2017-05-05T14:10:14.592Z,50.06
2017-05-05T14:11:36.451Z,50.68
2017-05-05T14:12:58.262Z,51.37
2017-05-05T14:14:20.031Z,52.1
2017-05-05T14:15:41.853Z,52.72
2017-05-05T14:17:03.746Z,53.13
2017-05-05T14:18:25.785Z,53.43
2017-05-05T14:19:47.655Z,53.55
2017-05-05T14:21:09.530Z,53.5
2017-05-05T14:22:31.399Z,53.53
2017-05-05T14:23:53.376Z,54.06
2017-05-05T14:25:15.160Z,53.21
2017-05-05T14:26:36.879Z,52.1
2017-05-05T14:27:58.616Z,50.75
2017-05-05T14:29:20.552Z,50.26
2017-05-05T14:30:43.656Z,46.19
2017-05-05T14:32:05.506Z,43.43
2017-05-05T14:33:27.329Z,41.43
2017-05-05T14:34:49.117Z,41.3
2017-05-05T14:36:11.012Z,39.87
2017-05-05T14:37:32.930Z,40.08
2017-05-05T14:38:58.266Z,37.8
2017-05-05T14:40:20.008Z,36.74
2017-05-05T14:41:41.850Z,39.6
2017-05-05T14:43:03.770Z,42.31
2017-05-05T14:44:27.403Z,43.9
2017-05-05T14:46:02.868Z,44.94
2017-05-05T14:47:43.546Z,46.18
2017-05-05T14:49:05.450Z,47.01
2017-05-05T14:50:27.365Z,47.64
2017-05-05T14:51:49.201Z,48.16
2017-05-05T14:53:11.080Z,44.14
2017-05-05T14:54:32.828Z,44.48
2017-05-05T14:55:54.695Z,45.74
2017-05-05T14:57:16.507Z,46.53
2017-05-05T14:58:38.398Z,47.1
2017-05-05T15:00:00.324Z,47.32
2017-05-05T15:01:22.157Z,47.34
2017-05-05T15:02:44.059Z,47.38
2017-05-05T15:04:05.885Z,47.5
2017-05-05T15:05:29.395Z,47.57
2017-05-05T15:06:51.315Z,47.62
2017-05-05T15:08:13.522Z,47.66
2017-05-05T15:09:35.369Z,47.82
2017-05-05T15:10:57.436Z,47.92
2017-05-05T15:12:19.415Z,48.15
2017-05-05T15:13:41.266Z,48.33
2017-05-05T15:15:04.076Z,48.5
2017-05-05T15:16:25.862Z,48.49
2017-05-05T15:17:47.720Z,48.46
2017-05-05T15:19:09.558Z,48.46
2017-05-05T15:20:31.347Z,48.41
2017-05-05T15:21:53.123Z,48.17
2017-05-05T15:23:15.055Z,47.92
2017-05-05T15:24:36.861Z,47.62
2017-05-05T15:25:58.689Z,47.4
2017-05-05T15:27:20.442Z,47.23
2017-05-05T15:28:42.336Z,47.21
2017-05-05T15:30:04.201Z,47.17
2017-05-05T15:31:26.126Z,47.17
2017-05-05T15:32:48.134Z,47.27
2017-05-05T15:34:10.417Z,47.39
2017-05-05T15:35:32.177Z,47.28
2017-05-05T15:36:53.959Z,47.18
2017-05-05T15:38:15.753Z,47.06
2017-05-05T15:39:37.697Z,46.9
2017-05-05T15:40:59.554Z,46.69
2017-05-05T15:42:21.405Z,46.49
2017-05-05T15:43:43.738Z,46.4
2017-05-05T15:45:07.275Z,46.33
2017-05-05T15:46:29.075Z,46.15
2017-05-05T15:47:51.182Z,45.72
2017-05-05T15:49:13.017Z,45.43
2017-05-05T15:50:34.896Z,45.43
2017-05-05T15:51:56.756Z,45.49
2017-05-05T15:53:18.587Z,45.59
2017-05-05T15:54:40.345Z,45.56
2017-05-05T15:56:02.255Z,45.58
2017-05-05T15:57:24.089Z,45.6
2017-05-05T15:58:45.879Z,45.64
2017-05-05T16:00:07.741Z,45.63
2017-05-05T16:01:29.584Z,45.56
2017-05-05T16:02:51.458Z,45.5
2017-05-05T16:04:13.793Z,45.43
2017-05-05T16:05:36.844Z,45.35
2017-05-05T16:06:58.698Z,45.27
2017-05-05T16:08:20.599Z,45.24
2017-05-05T16:09:42.397Z,45.18
2017-05-05T16:11:04.320Z,44.99
2017-05-05T16:12:26.188Z,44.74
2017-05-05T16:13:47.994Z,44.47
2017-05-05T16:15:09.810Z,44.03
2017-05-05T16:16:31.628Z,43.59
2017-05-05T16:17:53.420Z,42.61
2017-05-05T16:19:16.112Z,40.18
2017-05-05T16:20:37.882Z,38.15
2017-05-05T16:21:59.653Z,36.71
2017-05-05T16:23:21.734Z,35.54
2017-05-05T16:24:43.730Z,34.48
2017-05-05T16:26:05.662Z,33.52
2017-05-05T16:27:27.530Z,32.67
2017-05-05T16:28:49.482Z,31.89
2017-05-05T16:30:11.319Z,31.16
2017-05-05T16:31:33.153Z,30.5
2017-05-05T16:32:55.625Z,29.99
2017-05-05T16:34:17.620Z,29.55
2017-05-05T16:35:40.552Z,29.12
2017-05-05T16:37:02.402Z,28.72
2017-05-05T16:38:24.255Z,28.33
2017-05-05T16:39:46.163Z,27.97
2017-05-05T16:41:08.090Z,27.63
2017-05-05T16:42:29.854Z,27.33
2017-05-05T16:43:51.641Z,27.03
2017-05-05T16:45:13.458Z,26.74
2017-05-05T16:46:35.204Z,26.5
2017-05-05T16:47:56.904Z,26.23
2017-05-05T16:49:18.726Z,25.85
2017-05-05T16:50:40.536Z,25.44
2017-05-05T16:52:02.377Z,25.02
2017-05-05T16:53:24.183Z,24.58
2017-05-05T16:54:46.016Z,24.11
2017-05-05T16:56:07.870Z,23.68
2017-05-05T16:57:30.804Z,23.29
2017-05-05T16:58:52.658Z,22.92
2017-05-05T17:00:14.589Z,22.59
2017-05-05T17:01:36.477Z,22.27
2017-05-05T17:02:58.302Z,21.95
2017-05-05T17:04:20.217Z,21.65
2017-05-05T17:05:42.235Z,21.39
2017-05-05T17:07:04.110Z,21.13
2017-05-05T17:08:27.214Z,20.9
2017-05-05T17:09:49.078Z,20.67
2017-05-05T17:11:11.072Z,20.47
2017-05-05T17:12:33.989Z,20.27
2017-05-05T17:13:55.890Z,20.09
2017-05-05T17:15:18.779Z,19.89
2017-05-05T17:16:40.543Z,19.7
2017-05-05T17:18:02.333Z,19.51
2017-05-05T17:19:24.225Z,19.33
2017-05-05T17:20:46.081Z,19.17
2017-05-05T17:22:07.902Z,19.01
2017-05-05T17:23:29.897Z,18.88
2017-05-05T17:24:51.722Z,18.73
2017-05-05T17:26:13.665Z,18.59
2017-05-05T17:27:35.504Z,18.45
2017-05-05T17:28:57.386Z,18.33
2017-05-05T17:30:19.207Z,18.2
2017-05-05T17:31:41.024Z,18.06
2017-05-05T17:33:02.922Z,17.95
2017-05-05T17:34:24.762Z,17.83
2017-05-05T17:35:46.567Z,17.72
2017-05-05T17:37:08.459Z,17.59
2017-05-05T17:38:30.363Z,17.48
2017-05-05T17:39:52.527Z,17.37
2017-05-05T17:41:14.483Z,17.26
2017-05-05T17:42:36.369Z,17.17
2017-05-05T17:43:58.232Z,17.07
2017-05-05T17:45:20.071Z,16.97
2017-05-05T17:46:41.827Z,16.89
2017-05-05T17:48:03.731Z,16.8
2017-05-05T17:49:26.644Z,16.71
2017-05-05T17:50:48.565Z,16.63
2017-05-05T17:52:10.469Z,16.53
2017-05-05T17:53:32.330Z,16.44
2017-05-05T17:54:54.215Z,16.35
2017-05-05T17:56:16.076Z,16.27
2017-05-05T17:57:37.938Z,16.17
2017-05-05T17:59:00.796Z,16.05
2017-05-05T18:00:22.709Z,15.96
2017-05-05T18:01:44.643Z,15.83
2017-05-05T18:03:06.607Z,15.71